Time;durP1;ratioP1;P1;durP2;ratioP2;P2;SDS_P1;SDS_P2;PMS_P1;PMS_P2;Temp;Humidity;BMP_temperature;BMP_pressure;BME280_temperature;BME280_humidity;BME280_pressure;Samples;Min_cycle;Max_cycle;Signal;HPM_P1;HPM_P2
2022/09/07 00:02:13;;;;;;;3.17;2.87;;;22.20;99.90;;;;;;5050134;28;21220;-90
2022/09/07 00:04:40;;;;;;;3.20;2.37;;;22.20;99.90;;;;;;5050280;28;20625;-90
2022/09/07 00:07:07;;;;;;;3.70;2.63;;;22.20;99.90;;;;;;5049017;28;20648;-90
2022/09/07 00:09:34;;;;;;;3.17;2.43;;;22.20;99.90;;;;;;5054699;28;20749;-90
2022/09/07 00:12:00;;;;;;;3.10;2.80;;;22.10;99.90;;;;;;5052491;28;20640;-90
2022/09/07 00:14:27;;;;;;;2.43;2.23;;;22.10;99.90;;;;;;5048051;28;20647;-90
2022/09/07 00:16:55;;;;;;;5.30;2.97;;;22.20;99.90;;;;;;5048394;28;20622;-90
2022/09/07 00:19:22;;;;;;;4.23;2.30;;;22.10;99.90;;;;;;5047998;28;20649;-89
2022/09/07 00:21:50;;;;;;;3.43;3.13;;;22.20;99.90;;;;;;5041953;28;20724;-90
2022/09/07 00:24:16;;;;;;;2.50;2.40;;;22.20;99.90;;;;;;5050999;28;20634;-90
2022/09/07 00:26:43;;;;;;;3.23;2.93;;;22.30;99.90;;;;;;5051125;28;20641;-90
2022/09/07 00:29:10;;;;;;;2.40;2.30;;;22.20;99.90;;;;;;5049207;28;20660;-90
2022/09/07 00:31:37;;;;;;;3.17;2.87;;;22.30;99.90;;;;;;5051671;28;20656;-91
2022/09/07 00:34:06;;;;;;;2.73;2.43;;;22.30;99.90;;;;;;5051973;28;20634;-90
2022/09/07 00:36:33;;;;;;;4.00;2.50;;;22.20;99.90;;;;;;5051943;28;21236;-90
2022/09/07 00:38:59;;;;;;;2.93;2.63;;;22.20;99.90;;;;;;5052445;28;20626;-89
2022/09/07 00:41:26;;;;;;;2.50;2.30;;;22.20;99.90;;;;;;5051813;28;20691;-88
2022/09/07 00:43:55;;;;;;;2.93;2.03;;;22.20;99.90;;;;;;5053089;28;20721;-89
2022/09/07 00:46:24;;;;;;;3.90;2.50;;;22.20;99.90;;;;;;5051472;28;20728;-90
2022/09/07 00:48:59;;;;;;;2.60;2.40;;;22.20;99.90;;;;;;5057832;28;20640;-90
2022/09/07 00:51:33;;;;;;;2.97;2.60;;;22.20;99.90;;;;;;5052040;28;20635;-90
2022/09/07 00:54:05;;;;;;;2.57;2.37;;;22.20;99.90;;;;;;5054447;28;20634;-90
2022/09/07 00:56:36;;;;;;;2.93;2.63;;;22.20;99.90;;;;;;5051147;28;21072;-90
2022/09/07 00:59:03;;;;;;;5.10;2.53;;;22.20;99.90;;;;;;5051911;28;20749;-90
2022/09/07 01:01:32;;;;;;;2.57;2.37;;;22.20;99.90;;;;;;5051540;28;20680;-90
2022/09/07 01:04:00;;;;;;;3.97;2.43;;;22.30;99.90;;;;;;5058106;28;20641;-89
2022/09/07 01:06:32;;;;;;;5.37;2.60;;;22.30;99.90;;;;;;5052480;28;20996;-90
2022/09/07 01:09:03;;;;;;;2.93;2.37;;;22.30;99.90;;;;;;5066520;28;20729;-89
2022/09/07 01:11:33;;;;;;;3.10;2.40;;;22.20;99.90;;;;;;5069517;28;20632;-89
2022/09/07 01:14:02;;;;;;;4.33;1.97;;;22.10;99.90;;;;;;5068048;28;20701;-90
2022/09/07 01:16:49;;;;;;;2.13;2.00;;;22.10;99.90;;;;;;5066736;28;20664;-90
2022/09/07 01:19:33;;;;;;;2.27;2.07;;;22.00;99.90;;;;;;5052948;28;20740;-89
2022/09/07 01:22:15;;;;;;;3.43;2.50;;;22.10;99.90;;;;;;5045413;28;20661;-90
2022/09/07 01:24:57;;;;;;;1.80;1.60;;;22.00;99.90;;;;;;5053364;28;20983;-90
2022/09/07 01:28:02;;;;;;;2.00;1.80;;;22.00;99.90;;;;;;5050304;28;20636;-89
2022/09/07 01:30:34;;;;;;;2.87;2.03;;;22.00;99.90;;;;;;5050398;28;20692;-89
2022/09/07 01:33:22;;;;;;;2.00;1.80;;;21.90;99.90;;;;;;5050891;28;20626;-90
2022/09/07 01:36:01;;;;;;;2.20;2.00;;;21.90;99.90;;;;;;5054404;28;20625;-89
2022/09/07 01:38:35;;;;;;;2.00;1.90;;;22.00;99.90;;;;;;5050844;28;20621;-89
2022/09/07 01:41:05;;;;;;;1.67;1.57;;;22.10;99.90;;;;;;5045469;28;21178;-90
2022/09/07 01:43:39;;;;;;;2.00;1.90;;;22.20;99.90;;;;;;5050865;28;20975;-89
2022/09/07 01:46:14;;;;;;;3.20;2.93;;;22.10;99.90;;;;;;5050886;28;20707;-90
2022/09/07 01:48:44;;;;;;;2.87;2.67;;;22.00;99.90;;;;;;5060539;28;20621;-89
2022/09/07 01:51:12;;;;;;;2.60;1.80;;;22.10;99.90;;;;;;5053575;28;20995;-89
2022/09/07 01:53:42;;;;;;;2.40;2.20;;;22.10;99.90;;;;;;5054224;28;20626;-90
2022/09/07 01:56:13;;;;;;;3.00;2.27;;;22.10;99.90;;;;;;5049773;28;20765;-90
2022/09/07 01:58:44;;;;;;;2.70;2.13;;;22.00;99.90;;;;;;5049899;28;20665;-90
2022/09/07 02:01:20;;;;;;;3.10;2.13;;;22.10;99.90;;;;;;5050146;28;20661;-89
2022/09/07 02:03:51;;;;;;;2.80;2.33;;;22.10;99.90;;;;;;5050501;28;20623;-89
2022/09/07 02:06:22;;;;;;;3.40;2.13;;;22.10;99.90;;;;;;5049532;28;20618;-89
2022/09/07 02:08:54;;;;;;;17.53;2.90;;;22.00;99.90;;;;;;5050265;28;20661;-89
2022/09/07 02:11:27;;;;;;;3.10;2.80;;;22.10;99.90;;;;;;5053192;28;20635;-89
2022/09/07 02:13:59;;;;;;;4.27;2.70;;;21.70;99.90;;;;;;5033972;28;20693;-89
2022/09/07 02:16:28;;;;;;;2.50;2.30;;;21.80;99.90;;;;;;5048429;28;21513;-90
2022/09/07 02:19:00;;;;;;;2.50;2.30;;;21.90;99.90;;;;;;5049845;28;20629;-90
2022/09/07 02:21:31;;;;;;;3.77;2.40;;;22.00;99.90;;;;;;5052752;28;20673;-90
2022/09/07 02:24:03;;;;;;;2.50;2.30;;;22.20;99.90;;;;;;5050230;28;20644;-90
2022/09/07 02:26:30;;;;;;;3.10;2.40;;;22.20;99.90;;;;;;5049086;28;20644;-91
2022/09/07 02:28:57;;;;;;;3.53;2.87;;;22.10;99.90;;;;;;5049592;28;20629;-91
2022/09/07 02:31:24;;;;;;;3.77;2.90;;;22.10;99.90;;;;;;5049019;28;20634;-91
2022/09/07 02:33:52;;;;;;;2.30;2.17;;;22.00;99.90;;;;;;5049937;28;21037;-89
2022/09/07 02:36:24;;;;;;;4.03;2.67;;;22.00;99.90;;;;;;5052033;28;20660;-89
2022/09/07 02:38:51;;;;;;;2.40;2.20;;;21.90;99.90;;;;;;5046487;28;20622;-88
2022/09/07 02:41:31;;;;;;;2.37;2.17;;;22.00;99.90;;;;;;5058534;28;20693;-89
2022/09/07 02:43:58;;;;;;;2.77;2.30;;;22.10;99.90;;;;;;5052880;28;20633;-89
2022/09/07 02:46:43;;;;;;;2.73;2.37;;;22.10;99.90;;;;;;5048583;28;21568;-90
2022/09/07 02:49:25;;;;;;;3.10;2.10;;;22.10;99.90;;;;;;5045281;28;21226;-89
2022/09/07 02:52:03;;;;;;;4.13;2.50;;;22.10;99.90;;;;;;5049981;28;20635;-90
2022/09/07 02:54:40;;;;;;;2.53;2.33;;;22.00;99.90;;;;;;5050836;28;20641;-89
2022/09/07 02:57:17;;;;;;;3.80;2.70;;;22.00;99.90;;;;;;5048536;28;20644;-90
2022/09/07 02:59:55;;;;;;;2.60;2.23;;;22.00;99.90;;;;;;5051967;28;20657;-90
2022/09/07 03:02:28;;;;;;;2.30;2.10;;;22.10;99.90;;;;;;5049542;28;20687;-89
2022/09/07 03:05:02;;;;;;;2.73;2.47;;;22.10;99.90;;;;;;5039476;28;20634;-89
2022/09/07 03:07:33;;;;;;;2.60;2.00;;;21.90;99.90;;;;;;5046362;28;20728;-89
2022/09/07 03:10:04;;;;;;;4.80;2.47;;;21.90;99.90;;;;;;5058148;28;21135;-90
2022/09/07 03:12:39;;;;;;;2.87;2.60;;;21.90;99.90;;;;;;5067421;28;20622;-89
2022/09/07 03:15:10;;;;;;;2.70;2.50;;;22.00;99.90;;;;;;5066745;28;20748;-89
2022/09/07 03:17:37;;;;;;;2.30;2.20;;;22.00;99.90;;;;;;5063451;28;20708;-90
2022/09/07 03:20:06;;;;;;;3.30;3.07;;;22.00;99.90;;;;;;5049365;28;20743;-90
2022/09/07 03:22:33;;;;;;;2.63;2.10;;;21.90;99.90;;;;;;5049078;28;20672;-89
2022/09/07 03:25:03;;;;;;;2.33;2.20;;;22.10;99.90;;;;;;5048999;28;21056;-90
2022/09/07 03:27:30;;;;;;;2.63;2.13;;;22.10;99.90;;;;;;5053348;28;20692;-89
2022/09/07 03:29:57;;;;;;;3.10;2.50;;;22.00;99.90;;;;;;5048835;28;20661;-90
2022/09/07 03:32:24;;;;;;;2.70;2.50;;;22.00;99.90;;;;;;5047795;28;20626;-89
2022/09/07 03:34:51;;;;;;;3.03;2.20;;;22.00;99.90;;;;;;5045654;28;20636;-89
2022/09/07 03:37:19;;;;;;;2.33;2.13;;;21.90;99.90;;;;;;5031073;28;20637;-89
2022/09/07 03:39:46;;;;;;;5.20;2.37;;;22.00;99.90;;;;;;5049514;28;20652;-89
2022/09/07 03:42:13;;;;;;;3.60;2.33;;;22.00;99.90;;;;;;5055530;28;20728;-90
2022/09/07 03:44:40;;;;;;;2.83;1.93;;;21.90;99.90;;;;;;5052601;28;20721;-90
2022/09/07 03:47:07;;;;;;;4.33;2.57;;;21.90;99.90;;;;;;5053296;28;20728;-90
2022/09/07 03:49:34;;;;;;;3.00;2.23;;;22.00;99.90;;;;;;5050566;28;20664;-90
2022/09/07 03:52:00;;;;;;;2.23;2.00;;;21.90;99.90;;;;;;5048948;28;20626;-90
2022/09/07 03:54:29;;;;;;;2.70;2.50;;;22.00;99.90;;;;;;5046869;28;20630;-90
2022/09/07 03:56:55;;;;;;;1.93;1.73;;;22.00;99.90;;;;;;5047860;28;21250;-89
2022/09/07 03:59:22;;;;;;;2.33;1.77;;;22.10;99.90;;;;;;5046676;28;20661;-90
2022/09/07 04:01:49;;;;;;;4.23;2.50;;;22.00;99.90;;;;;;5048306;28;21114;-90
2022/09/07 04:04:16;;;;;;;2.60;2.40;;;22.00;99.90;;;;;;5047713;28;20644;-90
2022/09/07 04:06:43;;;;;;;2.30;2.10;;;21.90;99.90;;;;;;5046876;28;20610;-90
2022/09/07 04:09:13;;;;;;;3.80;2.50;;;21.80;99.90;;;;;;5048856;28;20668;-90
2022/09/07 04:11:42;;;;;;;3.83;2.57;;;21.90;99.90;;;;;;5047595;28;20640;-89
2022/09/07 04:14:10;;;;;;;2.53;2.17;;;22.00;99.90;;;;;;5053710;28;20618;-90
2022/09/07 04:16:37;;;;;;;4.70;3.03;;;21.90;99.90;;;;;;5046555;28;20717;-90
2022/09/07 04:19:05;;;;;;;2.53;2.30;;;21.80;99.90;;;;;;5047438;28;20653;-90
2022/09/07 04:21:33;;;;;;;3.53;2.60;;;21.90;99.90;;;;;;5047620;28;20756;-90
2022/09/07 04:24:00;;;;;;;5.57;3.00;;;21.90;99.90;;;;;;5048583;28;20638;-90
2022/09/07 04:26:29;;;;;;;3.90;2.20;;;21.90;99.90;;;;;;5046698;28;20638;-91
2022/09/07 04:28:59;;;;;;;3.00;2.20;;;22.00;99.90;;;;;;5047428;28;21135;-90
2022/09/07 04:31:27;;;;;;;4.60;2.70;;;21.90;99.90;;;;;;5046929;28;20688;-90
2022/09/07 04:33:54;;;;;;;4.80;2.90;;;21.90;99.90;;;;;;5048088;28;21183;-90
2022/09/07 04:36:23;;;;;;;3.03;2.57;;;22.00;99.90;;;;;;5046919;28;20621;-90
2022/09/07 04:38:54;;;;;;;4.10;2.40;;;21.90;99.90;;;;;;5047349;28;20622;-90
2022/09/07 04:41:22;;;;;;;2.57;2.20;;;21.80;99.90;;;;;;5047584;28;20660;-91
2022/09/07 04:43:53;;;;;;;2.97;2.77;;;21.80;99.90;;;;;;5048487;28;20980;-90
2022/09/07 04:46:22;;;;;;;4.33;2.50;;;21.70;99.90;;;;;;5049055;28;20657;-91
2022/09/07 04:48:50;;;;;;;2.80;2.27;;;21.70;99.90;;;;;;5053705;28;21224;-91
2022/09/07 04:51:18;;;;;;;8.30;2.40;;;21.70;99.90;;;;;;5048057;28;20983;-91
2022/09/07 04:53:49;;;;;;;2.83;2.60;;;21.80;99.90;;;;;;5047695;28;20640;-91
2022/09/07 04:56:16;;;;;;;7.53;2.80;;;21.90;99.90;;;;;;5051551;28;21195;-89
2022/09/07 04:58:43;;;;;;;2.60;2.23;;;21.90;99.90;;;;;;5046316;28;20636;-89
2022/09/07 05:01:10;;;;;;;3.03;2.53;;;21.80;99.90;;;;;;5047110;28;20635;-90
2022/09/07 05:03:38;;;;;;;2.90;2.40;;;21.90;99.90;;;;;;5051757;28;20626;-90
2022/09/07 05:06:07;;;;;;;2.77;2.40;;;21.70;99.90;;;;;;5047458;28;20625;-89
2022/09/07 05:08:36;;;;;;;2.40;2.20;;;21.70;99.90;;;;;;5055296;28;20630;-89
2022/09/07 05:11:04;;;;;;;2.60;2.03;;;21.70;99.90;;;;;;5060523;28;20740;-91
2022/09/07 05:13:31;;;;;;;3.90;2.17;;;21.70;99.90;;;;;;5059214;28;20773;-89
2022/09/07 05:15:58;;;;;;;3.20;2.20;;;21.70;99.90;;;;;;5053676;28;20634;-89
2022/09/07 05:18:25;;;;;;;4.40;2.50;;;21.80;99.90;;;;;;5051756;28;20665;-89
2022/09/07 05:20:53;;;;;;;2.80;2.10;;;21.60;99.90;;;;;;5048207;28;20675;-90
2022/09/07 05:23:22;;;;;;;2.90;2.37;;;21.70;99.90;;;;;;5053443;28;21291;-90
2022/09/07 05:25:49;;;;;;;3.10;2.50;;;21.70;99.90;;;;;;5048847;28;20703;-90
2022/09/07 05:28:16;;;;;;;3.60;2.40;;;21.70;99.90;;;;;;5048540;28;20633;-89
2022/09/07 05:30:43;;;;;;;4.23;2.70;;;21.70;99.90;;;;;;5046036;28;20727;-90
2022/09/07 05:33:12;;;;;;;3.83;2.37;;;21.60;99.90;;;;;;5049290;28;20637;-90
2022/09/07 05:35:40;;;;;;;3.20;2.30;;;21.70;99.90;;;;;;5027104;28;20632;-90
2022/09/07 05:38:08;;;;;;;5.13;2.53;;;21.70;99.90;;;;;;5046728;28;20694;-89
2022/09/07 05:40:35;;;;;;;3.10;2.77;;;21.70;99.90;;;;;;5048500;28;20764;-89
2022/09/07 05:43:02;;;;;;;2.60;2.40;;;21.80;99.90;;;;;;5044933;28;21264;-89
2022/09/07 05:45:30;;;;;;;4.03;2.40;;;21.80;99.90;;;;;;5043550;28;21004;-90
2022/09/07 05:47:57;;;;;;;3.70;2.93;;;21.80;99.90;;;;;;5044654;28;20640;-89
2022/09/07 05:50:23;;;;;;;2.73;2.50;;;21.90;99.90;;;;;;5044584;28;21221;-90
2022/09/07 05:52:50;;;;;;;5.10;2.30;;;21.90;99.90;;;;;;5047293;28;20697;-90
2022/09/07 05:55:18;;;;;;;3.07;2.80;;;21.90;99.90;;;;;;5046182;28;21243;-90
2022/09/07 05:57:46;;;;;;;2.60;2.40;;;21.80;99.90;;;;;;5045438;28;20633;-90
2022/09/07 06:00:14;;;;;;;4.20;2.57;;;21.80;99.90;;;;;;5045679;28;21255;-90
2022/09/07 06:02:41;;;;;;;4.37;2.33;;;21.90;99.90;;;;;;5047749;28;20666;-90
2022/09/07 06:05:10;;;;;;;3.50;2.67;;;21.90;99.90;;;;;;5048946;28;20745;-89
2022/09/07 06:07:37;;;;;;;3.27;2.80;;;21.90;99.90;;;;;;5047799;28;20683;-90
2022/09/07 06:10:05;;;;;;;3.13;2.67;;;21.90;99.90;;;;;;5044884;28;20706;-89
2022/09/07 06:12:34;;;;;;;4.43;2.10;;;21.90;99.90;;;;;;5047805;28;20645;-89
2022/09/07 06:15:01;;;;;;;4.87;3.10;;;22.00;99.90;;;;;;5047443;28;20979;-89
2022/09/07 06:17:28;;;;;;;6.90;2.60;;;22.00;99.90;;;;;;5049490;28;20660;-90
2022/09/07 06:19:55;;;;;;;4.43;2.90;;;21.90;99.90;;;;;;5046428;28;20775;-90
2022/09/07 06:22:22;;;;;;;3.33;3.03;;;21.90;99.90;;;;;;5049184;28;20680;-91
2022/09/07 06:24:49;;;;;;;2.53;2.33;;;22.00;99.90;;;;;;5044990;28;21044;-90
2022/09/07 06:27:16;;;;;;;2.67;2.47;;;22.00;99.90;;;;;;5049303;28;20636;-90
2022/09/07 06:29:44;;;;;;;3.80;2.47;;;22.10;99.90;;;;;;5044049;28;20678;-91
2022/09/07 06:32:11;;;;;;;6.60;3.80;;;22.10;99.90;;;;;;5044883;28;20630;-91
2022/09/07 06:34:38;;;;;;;2.53;2.33;;;22.00;99.90;;;;;;5044990;28;20644;-90
2022/09/07 06:37:05;;;;;;;4.73;2.67;;;22.10;99.90;;;;;;5047821;28;20688;-91
2022/09/07 06:39:33;;;;;;;4.87;2.70;;;22.10;99.90;;;;;;5048129;28;20660;-90
2022/09/07 06:42:00;;;;;;;3.30;2.70;;;22.10;99.90;;;;;;5046905;28;20684;-90
2022/09/07 06:44:27;;;;;;;3.63;2.77;;;22.10;99.90;;;;;;5049602;28;21206;-90
2022/09/07 06:46:55;;;;;;;4.30;2.60;;;22.20;99.90;;;;;;5050516;28;20629;-90
2022/09/07 06:49:23;;;;;;;11.97;3.33;;;22.20;99.90;;;;;;5047858;28;20658;-91
2022/09/07 06:51:50;;;;;;;6.03;2.33;;;22.30;99.90;;;;;;5045989;28;20622;-90
2022/09/07 06:54:17;;;;;;;3.20;2.57;;;22.30;99.90;;;;;;5043421;28;20718;-90
2022/09/07 06:56:44;;;;;;;3.90;2.97;;;22.30;99.90;;;;;;5043690;28;20627;-90
2022/09/07 06:59:11;;;;;;;5.80;3.10;;;22.20;99.90;;;;;;5047976;28;20661;-90
2022/09/07 07:01:38;;;;;;;5.67;3.10;;;22.10;99.90;;;;;;5046947;28;21216;-91
2022/09/07 07:04:06;;;;;;;5.93;3.20;;;22.10;99.90;;;;;;5050968;28;20633;-90
2022/09/07 07:06:34;;;;;;;5.53;3.30;;;22.30;99.90;;;;;;5044898;28;20729;-90
2022/09/07 07:09:01;;;;;;;4.60;2.87;;;22.30;99.90;;;;;;5049352;28;20664;-91
2022/09/07 07:11:29;;;;;;;6.03;2.70;;;22.20;99.90;;;;;;5045315;28;21060;-91
2022/09/07 07:13:56;;;;;;;5.13;2.50;;;22.20;99.90;;;;;;5045987;28;20699;-91
2022/09/07 07:16:23;;;;;;;6.60;2.70;;;22.30;99.90;;;;;;5045958;28;20728;-91
2022/09/07 07:18:54;;;;;;;4.30;2.20;;;22.20;99.90;;;;;;5043833;28;20679;-90
2022/09/07 07:21:22;;;;;;;3.70;2.33;;;22.30;99.90;;;;;;5052236;28;21178;-91
2022/09/07 07:23:50;;;;;;;2.53;2.17;;;22.40;99.90;;;;;;5044819;28;20658;-90
2022/09/07 07:26:19;;;;;;;5.37;2.73;;;22.50;99.90;;;;;;5040222;28;20726;-90
2022/09/07 07:28:47;;;;;;;2.57;2.33;;;22.40;99.90;;;;;;5045007;28;21164;-91
2022/09/07 07:31:15;;;;;;;3.20;2.90;;;22.60;99.90;;;;;;5046098;28;20729;-90
2022/09/07 07:37:05;;;;;;;6.87;2.90;;;22.20;99.90;;;;;;5039775;28;20613;-86
2022/09/07 07:39:32;;;;;;;3.90;2.53;;;22.30;99.90;;;;;;5043012;28;20622;-87
2022/09/07 07:41:59;;;;;;;4.27;2.33;;;22.20;99.90;;;;;;5047777;28;20626;-87
2022/09/07 07:44:25;;;;;;;4.30;2.80;;;22.30;99.90;;;;;;5040353;28;20649;-87
2022/09/07 07:46:52;;;;;;;7.17;3.20;;;22.30;99.90;;;;;;5040509;28;21164;-87
2022/09/07 07:49:19;;;;;;;6.80;2.87;;;22.30;99.90;;;;;;5045614;28;20630;-86
2022/09/07 07:51:46;;;;;;;5.53;3.10;;;22.30;99.90;;;;;;5045539;28;20626;-86
2022/09/07 07:54:14;;;;;;;4.77;2.87;;;22.30;99.90;;;;;;5040207;28;21298;-87
2022/09/07 07:56:41;;;;;;;4.50;3.37;;;22.30;99.90;;;;;;5042707;28;20657;-87
2022/09/07 07:59:09;;;;;;;5.43;2.87;;;22.30;99.90;;;;;;5042951;28;20629;-87
2022/09/07 08:01:36;;;;;;;5.00;3.23;;;22.40;99.90;;;;;;5042523;28;20804;-86
2022/09/07 08:04:03;;;;;;;2.77;2.50;;;22.50;99.90;;;;;;5041336;28;20666;-87
2022/09/07 08:06:29;;;;;;;7.33;3.70;;;22.60;99.90;;;;;;5040908;28;20661;-87
2022/09/07 08:08:56;;;;;;;5.17;3.30;;;22.70;99.90;;;;;;5042857;28;20736;-87
2022/09/07 08:11:25;;;;;;;2.00;1.83;;;22.80;99.90;;;;;;5043519;28;20729;-87
2022/09/07 08:13:53;;;;;;;2.90;2.70;;;22.90;99.90;;;;;;5043362;28;20629;-87
2022/09/07 08:16:21;;;;;;;6.03;3.20;;;23.10;99.90;;;;;;5041646;28;20714;-86
2022/09/07 08:18:48;;;;;;;5.73;3.20;;;23.10;99.90;;;;;;5042324;28;20633;-87
2022/09/07 08:21:16;;;;;;;3.80;2.90;;;23.20;99.90;;;;;;5043073;28;20638;-87
2022/09/07 08:23:43;;;;;;;6.13;2.20;;;23.30;99.90;;;;;;5043289;28;20665;-87
2022/09/07 08:26:10;;;;;;;4.60;3.03;;;23.40;99.90;;;;;;5039595;28;20892;-87
2022/09/07 08:28:40;;;;;;;5.63;3.23;;;23.50;99.90;;;;;;5045940;28;20634;-87
2022/09/07 08:31:09;;;;;;;5.27;2.87;;;23.60;99.90;;;;;;5038352;28;20649;-86
2022/09/07 08:33:37;;;;;;;3.83;2.73;;;23.60;99.90;;;;;;5042034;28;21256;-87
2022/09/07 08:36:06;;;;;;;5.43;2.20;;;23.70;99.90;;;;;;5040885;28;20746;-87
2022/09/07 08:38:34;;;;;;;2.87;2.00;;;23.70;99.90;;;;;;5043954;28;20668;-87
2022/09/07 08:41:02;;;;;;;6.10;2.33;;;23.80;99.90;;;;;;5050717;28;20637;-87
2022/09/07 08:43:40;;;;;;;7.87;2.70;;;23.80;99.90;;;;;;5042438;28;20649;-86
2022/09/07 08:46:15;;;;;;;3.07;2.40;;;24.00;99.90;;;;;;5042970;28;20664;-87
2022/09/07 08:48:42;;;;;;;2.53;2.33;;;24.00;99.90;;;;;;5047338;28;20620;-87
2022/09/07 08:51:16;;;;;;;4.90;2.40;;;24.10;99.90;;;;;;5046544;28;20626;-87
2022/09/07 08:53:45;;;;;;;4.17;1.93;;;24.10;99.90;;;;;;5045313;28;20641;-87
2022/09/07 08:56:18;;;;;;;3.97;2.50;;;24.20;99.90;;;;;;5046968;28;20728;-86
2022/09/07 08:58:47;;;;;;;5.03;2.40;;;24.30;99.90;;;;;;5045828;28;20626;-87
2022/09/07 09:01:17;;;;;;;3.77;2.43;;;24.40;99.90;;;;;;5046204;28;20970;-87
2022/09/07 09:03:44;;;;;;;7.33;2.47;;;24.50;99.90;;;;;;5046519;28;20671;-87
2022/09/07 09:06:21;;;;;;;2.57;2.13;;;24.50;99.90;;;;;;5045258;28;20649;-87
2022/09/07 09:09:03;;;;;;;8.33;2.60;;;24.60;99.90;;;;;;5045892;28;20629;-87
2022/09/07 09:11:43;;;;;;;5.47;2.87;;;24.70;99.90;;;;;;5046326;28;20632;-87
2022/09/07 09:14:17;;;;;;;2.70;2.20;;;24.70;99.90;;;;;;5043952;28;20626;-86
2022/09/07 09:16:51;;;;;;;2.30;2.03;;;24.90;99.90;;;;;;5044507;28;20660;-86
2022/09/07 09:19:44;;;;;;;7.33;2.87;;;24.90;99.90;;;;;;5046184;28;20625;-86
2022/09/07 09:22:14;;;;;;;3.10;2.00;;;25.00;99.90;;;;;;5042040;28;21183;-86
2022/09/07 09:24:46;;;;;;;3.63;2.10;;;25.10;99.90;;;;;;5043483;28;20629;-86
2022/09/07 09:27:13;;;;;;;5.07;2.43;;;25.10;99.90;;;;;;5044502;28;20636;-86
2022/09/07 09:29:40;;;;;;;6.47;2.60;;;25.10;99.90;;;;;;5044665;28;20646;-87
2022/09/07 09:32:33;;;;;;;5.13;2.67;;;25.20;99.90;;;;;;5045562;28;20633;-87
2022/09/07 09:35:03;;;;;;;3.70;2.80;;;25.30;99.90;;;;;;5041355;28;20672;-87
2022/09/07 09:37:39;;;;;;;4.10;2.77;;;25.30;99.90;;;;;;5044780;28;20625;-87
2022/09/07 09:40:08;;;;;;;3.33;2.20;;;25.30;99.90;;;;;;5044416;28;20660;-85
2022/09/07 09:42:37;;;;;;;4.97;2.10;;;25.40;99.90;;;;;;5046890;28;20635;-86
2022/09/07 09:45:13;;;;;;;8.23;2.60;;;25.50;99.90;;;;;;5045654;28;21018;-86
2022/09/07 09:47:41;;;;;;;6.80;3.00;;;25.50;99.90;;;;;;5028288;28;20756;-87
2022/09/07 09:50:20;;;;;;;5.40;3.30;;;25.50;99.90;;;;;;5043488;28;20637;-86
2022/09/07 09:52:47;;;;;;;3.93;2.67;;;25.70;99.90;;;;;;5045679;28;21131;-86
2022/09/07 09:55:27;;;;;;;7.47;2.30;;;25.80;99.90;;;;;;5044215;28;20656;-87
2022/09/07 09:57:57;;;;;;;2.90;2.57;;;25.90;99.90;;;;;;5040654;28;20956;-87
2022/09/07 10:00:25;;;;;;;4.50;2.23;;;26.10;99.90;;;;;;5045619;28;21039;-87
2022/09/07 10:03:19;;;;;;;5.43;2.47;;;26.10;99.90;;;;;;5044980;28;21236;-87
2022/09/07 10:05:47;;;;;;;6.50;2.53;;;26.10;99.90;;;;;;5043339;28;21016;-87
2022/09/07 10:08:20;;;;;;;5.07;2.93;;;26.20;99.90;;;;;;5042495;28;20618;-87
2022/09/07 10:10:56;;;;;;;4.80;2.30;;;26.20;99.90;;;;;;5044797;28;20631;-86
2022/09/07 10:13:25;;;;;;;9.50;2.70;;;26.30;99.90;;;;;;5045485;28;20629;-86
2022/09/07 10:15:53;;;;;;;7.33;2.67;;;26.40;99.90;;;;;;5044493;28;20654;-86
2022/09/07 10:18:28;;;;;;;2.30;2.10;;;26.60;99.90;;;;;;5041736;28;21187;-86
2022/09/07 10:21:12;;;;;;;4.97;2.37;;;26.70;99.90;;;;;;5041146;28;20627;-86
2022/09/07 10:23:39;;;;;;;4.07;2.60;;;27.00;99.90;;;;;;5044115;28;20681;-86
2022/09/07 10:26:21;;;;;;;3.70;2.27;;;27.10;99.90;;;;;;5043458;28;20657;-86
2022/09/07 10:28:47;;;;;;;5.63;2.47;;;27.20;99.90;;;;;;5044065;28;20627;-85
2022/09/07 10:31:19;;;;;;;7.07;2.60;;;27.40;99.90;;;;;;5045479;28;20625;-86
2022/09/07 10:33:55;;;;;;;3.43;2.70;;;27.50;99.90;;;;;;5047216;28;20733;-86
2022/09/07 10:36:30;;;;;;;2.53;1.90;;;27.60;99.90;;;;;;5041085;28;20661;-86
2022/09/07 10:39:03;;;;;;;6.03;2.67;;;27.70;99.90;;;;;;5041900;28;20686;-86
2022/09/07 10:41:38;;;;;;;4.40;2.80;;;27.70;97.80;;;;;;5044864;28;21053;-85
2022/09/07 10:44:09;;;;;;;3.60;2.13;;;27.50;99.60;;;;;;5042255;28;20672;-86
2022/09/07 10:46:49;;;;;;;6.30;2.60;;;27.50;99.90;;;;;;5045016;28;20661;-86
2022/09/07 10:49:23;;;;;;;3.83;2.97;;;27.60;99.90;;;;;;5044506;28;20626;-86
2022/09/07 10:52:04;;;;;;;4.73;3.23;;;27.50;99.60;;;;;;5044538;28;21163;-87
2022/09/07 10:54:40;;;;;;;4.50;2.50;;;27.30;99.20;;;;;;5041832;28;20629;-87
2022/09/07 10:57:33;;;;;;;6.80;2.43;;;27.30;99.90;;;;;;5040549;28;20629;-87
2022/09/07 11:00:07;;;;;;;4.87;2.07;;;27.20;99.90;;;;;;5044337;28;20630;-87
2022/09/07 11:02:46;;;;;;;3.57;2.07;;;27.00;99.90;;;;;;5042464;28;20697;-87
2022/09/07 11:05:26;;;;;;;6.23;2.70;;;26.90;99.90;;;;;;5040796;28;20657;-87
2022/09/07 11:08:07;;;;;;;6.43;2.73;;;26.80;99.90;;;;;;5045269;28;20644;-87
2022/09/07 11:10:42;;;;;;;4.40;2.67;;;26.70;99.90;;;;;;5042872;28;20653;-87
2022/09/07 11:13:15;;;;;;;5.20;2.57;;;26.60;99.90;;;;;;5044048;28;20621;-88
2022/09/07 11:15:47;;;;;;;3.80;2.63;;;26.60;99.90;;;;;;5044220;28;20650;-87
2022/09/07 11:18:19;;;;;;;2.30;1.67;;;26.50;99.90;;;;;;5040285;28;20663;-87
2022/09/07 11:20:54;;;;;;;4.27;2.70;;;26.60;99.90;;;;;;5042732;28;20633;-87
2022/09/07 11:23:26;;;;;;;2.73;2.07;;;26.60;99.90;;;;;;5044001;28;20756;-87
2022/09/07 11:26:01;;;;;;;5.20;2.37;;;26.80;99.90;;;;;;5046031;28;20649;-87
2022/09/07 11:28:36;;;;;;;2.90;2.17;;;26.90;99.90;;;;;;5042577;28;20621;-87
2022/09/07 11:31:10;;;;;;;3.40;1.97;;;27.00;99.90;;;;;;5037915;28;20657;-86
2022/09/07 11:33:48;;;;;;;5.70;2.83;;;27.00;99.90;;;;;;5044992;28;20614;-87
2022/09/07 11:36:19;;;;;;;4.83;2.67;;;27.10;99.90;;;;;;5040094;28;20670;-86
2022/09/07 11:38:51;;;;;;;2.73;2.43;;;27.10;99.90;;;;;;5041008;28;20692;-87
2022/09/07 11:41:22;;;;;;;4.13;2.80;;;27.10;99.90;;;;;;5045873;28;20638;-86
2022/09/07 11:43:56;;;;;;;4.83;2.70;;;27.10;99.90;;;;;;5042677;28;20650;-87
2022/09/07 11:46:31;;;;;;;7.93;3.20;;;27.20;99.90;;;;;;5047528;28;20666;-86
2022/09/07 11:48:58;;;;;;;2.50;2.23;;;27.10;99.90;;;;;;5042777;28;20642;-86
2022/09/07 11:51:38;;;;;;;4.93;2.67;;;27.20;99.90;;;;;;5046395;28;20637;-85
2022/09/07 11:54:28;;;;;;;4.77;2.40;;;27.50;99.90;;;;;;5039754;28;20606;-85
2022/09/07 11:56:59;;;;;;;3.47;1.93;;;27.90;99.40;;;;;;5038766;28;20784;-85
2022/09/07 11:59:52;;;;;;;2.50;1.93;;;28.30;98.90;;;;;;5044366;28;20625;-86
2022/09/07 12:02:58;;;;;;;3.30;1.97;;;28.80;96.80;;;;;;5038558;28;20631;-87
2022/09/07 12:05:40;;;;;;;4.83;2.33;;;29.20;94.40;;;;;;5021806;28;20689;-86
2022/09/07 12:08:25;;;;;;;5.00;2.33;;;29.70;92.90;;;;;;5036645;28;20626;-84
2022/09/07 12:11:05;;;;;;;6.20;2.50;;;30.00;91.70;;;;;;5046551;28;20633;-85
2022/09/07 12:14:01;;;;;;;4.20;2.50;;;30.40;89.50;;;;;;5041353;28;20703;-85
2022/09/07 12:16:46;;;;;;;4.50;2.90;;;30.70;84.50;;;;;;5050993;28;20661;-86
2022/09/07 12:19:18;;;;;;;7.97;2.60;;;31.00;81.20;;;;;;5039086;28;20637;-86
2022/09/07 12:21:49;;;;;;;4.00;3.37;;;31.30;78.80;;;;;;5041603;28;20953;-85
2022/09/07 12:24:39;;;;;;;2.33;2.23;;;31.50;78.00;;;;;;5039108;28;20740;-85
2022/09/07 12:27:10;;;;;;;4.30;3.20;;;31.90;75.90;;;;;;5037409;28;20700;-86
2022/09/07 12:29:37;;;;;;;5.70;3.17;;;32.00;76.80;;;;;;5041683;28;20649;-86
2022/09/07 12:32:06;;;;;;;4.50;3.17;;;32.20;75.60;;;;;;5045329;28;20646;-85
2022/09/07 12:35:00;;;;;;;3.67;2.50;;;32.30;73.50;;;;;;5041190;28;21228;-86
2022/09/07 12:37:37;;;;;;;4.53;2.80;;;32.60;71.40;;;;;;5040958;28;20630;-85
2022/09/07 12:40:41;;;;;;;4.97;2.47;;;33.00;70.70;;;;;;5043343;28;20659;-86
2022/09/07 12:43:50;;;;;;;9.13;2.67;;;32.90;64.20;;;;;;5041792;28;20625;-87
2022/09/07 12:46:40;;;;;;;3.90;2.07;;;33.00;66.80;;;;;;5040327;28;20650;-86
2022/09/07 12:49:32;;;;;;;6.13;2.83;;;32.70;65.30;;;;;;5039006;28;20633;-86
2022/09/07 12:52:13;;;;;;;3.50;2.20;;;32.40;64.80;;;;;;5041327;28;20619;-86
2022/09/07 12:54:46;;;;;;;4.10;2.70;;;32.40;66.10;;;;;;5042266;28;21281;-86
2022/09/07 12:57:26;;;;;;;4.10;1.90;;;32.60;66.00;;;;;;5049218;28;21190;-85
2022/09/07 13:00:06;;;;;;;2.77;1.90;;;32.90;65.20;;;;;;5042138;28;20633;-86
2022/09/07 13:03:08;;;;;;;4.87;2.23;;;33.00;65.10;;;;;;5039656;28;20636;-88
2022/09/07 13:05:51;;;;;;;5.07;1.97;;;33.20;63.10;;;;;;5042457;28;20676;-87
2022/09/07 13:08:38;;;;;;;3.80;2.40;;;32.70;61.80;;;;;;5047381;28;21171;-87
2022/09/07 13:11:26;;;;;;;2.40;2.17;;;31.90;63.70;;;;;;5042392;28;20612;-87
2022/09/07 13:13:58;;;;;;;5.83;2.63;;;31.50;66.00;;;;;;5046059;28;20605;-87
2022/09/07 13:16:29;;;;;;;4.47;2.17;;;31.20;67.80;;;;;;5040977;28;20650;-87